KLOZ/LOZ METAR and TAF weather

Enter ICAO airport designator
Station Type Date Time Source
KLOZ METAR 2024/06/16 09:53 UTC NOAA

KLOZ 160953Z AUTO 00000KT 10SM CLR 16/13 A3007 RMK AO2 SLP171 T01610133


Station Type Date Time Source
KLOZ Decoded METAR 2024/06/16 09:53 UTC NOAA

LONDON-CORBIN AIRPORT, KY, United States (KLOZ) 37-05N 084-04W 362M
Jun 16, 2024 - 05:53 AM EDT / 2024.06.16 0953 UTC
Wind: Calm:0
Visibility: 10 mile(s):0
Sky conditions: clear
Temperature: 61.0 F (16.1 C)
Dew Point: 55.9 F (13.3 C)
Relative Humidity: 83%
Pressure (altimeter): 30.07 in. Hg (1018 hPa)
ob: KLOZ 160953Z AUTO 00000KT 10SM CLR 16/13 A3007 RMK AO2 SLP171 T01610133
cycle: 10

Station Type Date Time Source
KLOZ TAF 2024/06/16 06:30 UTC NOAA